sensor_id;sensor_type;location;lat;lon;timestamp;pressure;altitude;pressure_sealevel;temperature;humidity
73558;BME280;61829;53.286;10.434;2024-02-16T00:00:08;101021.16;;;12.49;94.24
73558;BME280;61829;53.286;10.434;2024-02-16T00:03:15;101009.88;;;12.45;94.27
73558;BME280;61829;53.286;10.434;2024-02-16T00:06:00;101010.91;;;12.44;94.55
73558;BME280;61829;53.286;10.434;2024-02-16T00:08:44;101005.88;;;12.41;94.41
73558;BME280;61829;53.286;10.434;2024-02-16T00:11:29;101000.66;;;12.40;94.38
73558;BME280;61829;53.286;10.434;2024-02-16T00:14:13;100997.13;;;12.39;94.46
73558;BME280;61829;53.286;10.434;2024-02-16T00:16:57;100995.84;;;12.35;94.51
73558;BME280;61829;53.286;10.434;2024-02-16T00:19:42;101008.72;;;12.33;94.57
73558;BME280;61829;53.286;10.434;2024-02-16T00:22:27;100998.94;;;12.32;94.81
73558;BME280;61829;53.286;10.434;2024-02-16T00:25:11;100990.84;;;12.32;94.68
73558;BME280;61829;53.286;10.434;2024-02-16T00:27:59;100982.91;;;12.30;94.88
73558;BME280;61829;53.286;10.434;2024-02-16T00:30:43;100984.34;;;12.26;95.11
73558;BME280;61829;53.286;10.434;2024-02-16T00:33:28;100971.25;;;12.30;95.15
73558;BME280;61829;53.286;10.434;2024-02-16T00:36:13;100971.09;;;12.31;94.86
73558;BME280;61829;53.286;10.434;2024-02-16T00:38:58;100976.28;;;12.33;94.85
73558;BME280;61829;53.286;10.434;2024-02-16T00:41:43;100961.28;;;12.30;94.72
73558;BME280;61829;53.286;10.434;2024-02-16T00:44:28;100952.09;;;12.25;94.98
73558;BME280;61829;53.286;10.434;2024-02-16T00:47:12;100955.44;;;12.27;95.07
73558;BME280;61829;53.286;10.434;2024-02-16T00:49:59;100952.53;;;12.28;94.58
73558;BME280;61829;53.286;10.434;2024-02-16T00:56:30;100944.19;;;12.23;94.67
73558;BME280;61829;53.286;10.434;2024-02-16T00:59:14;100931.91;;;12.21;94.85
73558;BME280;61829;53.286;10.434;2024-02-16T01:01:59;100931.06;;;12.20;94.84
73558;BME280;61829;53.286;10.434;2024-02-16T01:04:43;100928.81;;;12.24;94.46
73558;BME280;61829;53.286;10.434;2024-02-16T01:07:31;100920.06;;;12.22;94.35
73558;BME280;61829;53.286;10.434;2024-02-16T01:10:16;100924.63;;;12.21;94.40
73558;BME280;61829;53.286;10.434;2024-02-16T01:13:03;100922.09;;;12.20;94.04
73558;BME280;61829;53.286;10.434;2024-02-16T01:15:47;100927.50;;;12.20;93.96
73558;BME280;61829;53.286;10.434;2024-02-16T01:18:32;100927.91;;;12.17;93.84
73558;BME280;61829;53.286;10.434;2024-02-16T01:21:17;100924.56;;;12.15;94.00
73558;BME280;61829;53.286;10.434;2024-02-16T01:24:02;100922.88;;;12.13;93.87
73558;BME280;61829;53.286;10.434;2024-02-16T01:26:47;100920.56;;;12.10;93.94
73558;BME280;61829;53.286;10.434;2024-02-16T01:29:32;100911.41;;;12.11;94.02
73558;BME280;61829;53.286;10.434;2024-02-16T01:32:17;100913.94;;;12.13;93.88
73558;BME280;61829;53.286;10.434;2024-02-16T01:35:03;100911.25;;;12.13;94.07
73558;BME280;61829;53.286;10.434;2024-02-16T01:37:48;100914.50;;;12.08;94.25
73558;BME280;61829;53.286;10.434;2024-02-16T01:40:32;100915.56;;;12.07;94.28
73558;BME280;61829;53.286;10.434;2024-02-16T01:43:21;100913.50;;;12.09;94.08
73558;BME280;61829;53.286;10.434;2024-02-16T01:46:06;100916.22;;;12.09;93.91
73558;BME280;61829;53.286;10.434;2024-02-16T01:48:51;100914.13;;;12.11;93.51
73558;BME280;61829;53.286;10.434;2024-02-16T01:55:06;100913.91;;;12.06;93.30
73558;BME280;61829;53.286;10.434;2024-02-16T01:57:54;100900.50;;;11.98;93.64
73558;BME280;61829;53.286;10.434;2024-02-16T02:00:42;100897.81;;;11.98;93.51
73558;BME280;61829;53.286;10.434;2024-02-16T02:03:26;100912.97;;;11.99;93.57
73558;BME280;61829;53.286;10.434;2024-02-16T02:06:11;100907.13;;;11.96;93.13
73558;BME280;61829;53.286;10.434;2024-02-16T02:08:56;100908.78;;;11.97;93.19
73558;BME280;61829;53.286;10.434;2024-02-16T02:11:41;100896.50;;;11.94;93.10
73558;BME280;61829;53.286;10.434;2024-02-16T02:14:25;100894.00;;;11.93;93.19
73558;BME280;61829;53.286;10.434;2024-02-16T02:17:11;100891.31;;;11.93;92.99
73558;BME280;61829;53.286;10.434;2024-02-16T02:19:55;100884.22;;;11.91;93.41
73558;BME280;61829;53.286;10.434;2024-02-16T02:22:39;100883.59;;;11.89;92.90
73558;BME280;61829;53.286;10.434;2024-02-16T02:25:24;100890.22;;;11.87;93.14
73558;BME280;61829;53.286;10.434;2024-02-16T02:28:11;100891.41;;;11.84;93.29
73558;BME280;61829;53.286;10.434;2024-02-16T02:30:55;100882.66;;;11.82;93.11
73558;BME280;61829;53.286;10.434;2024-02-16T02:33:40;100874.75;;;11.81;92.92
73558;BME280;61829;53.286;10.434;2024-02-16T02:36:24;100876.81;;;11.79;93.44
73558;BME280;61829;53.286;10.434;2024-02-16T02:39:09;100873.28;;;11.78;93.16
73558;BME280;61829;53.286;10.434;2024-02-16T02:41:54;100867.22;;;11.76;93.36
73558;BME280;61829;53.286;10.434;2024-02-16T02:44:39;100856.41;;;11.76;93.23
73558;BME280;61829;53.286;10.434;2024-02-16T02:47:24;100853.06;;;11.74;93.19
73558;BME280;61829;53.286;10.434;2024-02-16T02:50:09;100848.72;;;11.73;93.25
73558;BME280;61829;53.286;10.434;2024-02-16T02:52:53;100842.47;;;11.73;93.07
73558;BME280;61829;53.286;10.434;2024-02-16T02:55:38;100844.97;;;11.74;93.39
73558;BME280;61829;53.286;10.434;2024-02-16T02:58:22;100838.94;;;11.72;93.44
73558;BME280;61829;53.286;10.434;2024-02-16T03:01:07;100834.00;;;11.76;92.90
73558;BME280;61829;53.286;10.434;2024-02-16T03:03:54;100839.38;;;11.76;93.00
73558;BME280;61829;53.286;10.434;2024-02-16T03:06:39;100827.75;;;11.75;93.13
73558;BME280;61829;53.286;10.434;2024-02-16T03:09:23;100834.00;;;11.76;92.74
73558;BME280;61829;53.286;10.434;2024-02-16T03:12:10;100838.47;;;11.68;92.96
73558;BME280;61829;53.286;10.434;2024-02-16T03:14:55;100840.56;;;11.66;92.99
73558;BME280;61829;53.286;10.434;2024-02-16T03:17:40;100824.91;;;11.62;93.10
73558;BME280;61829;53.286;10.434;2024-02-16T03:20:24;100833.84;;;11.62;93.22
73558;BME280;61829;53.286;10.434;2024-02-16T03:23:12;100832.19;;;11.61;93.43
73558;BME280;61829;53.286;10.434;2024-02-16T03:25:56;100825.75;;;11.62;93.39
73558;BME280;61829;53.286;10.434;2024-02-16T03:28:53;100828.44;;;11.62;93.29
73558;BME280;61829;53.286;10.434;2024-02-16T03:31:37;100819.69;;;11.60;93.43
73558;BME280;61829;53.286;10.434;2024-02-16T03:34:22;100819.69;;;11.60;93.27
73558;BME280;61829;53.286;10.434;2024-02-16T03:37:06;100812.63;;;11.59;93.43
73558;BME280;61829;53.286;10.434;2024-02-16T03:39:51;100818.69;;;11.61;93.40
73558;BME280;61829;53.286;10.434;2024-02-16T03:42:37;100805.38;;;11.60;93.44
73558;BME280;61829;53.286;10.434;2024-02-16T03:45:27;100806.84;;;11.62;93.32
73558;BME280;61829;53.286;10.434;2024-02-16T03:48:12;100814.31;;;11.60;93.57
73558;BME280;61829;53.286;10.434;2024-02-16T03:50:56;100801.47;;;11.62;93.11
73558;BME280;61829;53.286;10.434;2024-02-16T03:53:41;100799.59;;;11.63;93.04
73558;BME280;61829;53.286;10.434;2024-02-16T03:56:25;100796.88;;;11.63;93.21
73558;BME280;61829;53.286;10.434;2024-02-16T03:59:09;100798.09;;;11.60;93.07
73558;BME280;61829;53.286;10.434;2024-02-16T04:01:54;100791.88;;;11.60;92.93
73558;BME280;61829;53.286;10.434;2024-02-16T04:04:41;100789.38;;;11.58;92.78
73558;BME280;61829;53.286;10.434;2024-02-16T04:07:26;100783.34;;;11.56;92.96
73558;BME280;61829;53.286;10.434;2024-02-16T04:10:25;100782.69;;;11.54;92.64
73558;BME280;61829;53.286;10.434;2024-02-16T04:13:10;100789.31;;;11.52;93.04
73558;BME280;61829;53.286;10.434;2024-02-16T04:15:54;100792.66;;;11.54;92.68
73558;BME280;61829;53.286;10.434;2024-02-16T04:18:39;100791.16;;;11.51;92.85
73558;BME280;61829;53.286;10.434;2024-02-16T04:21:23;100784.75;;;11.52;92.99
73558;BME280;61829;53.286;10.434;2024-02-16T04:24:08;100782.91;;;11.53;93.11
73558;BME280;61829;53.286;10.434;2024-02-16T04:26:52;100791.44;;;11.56;92.72
73558;BME280;61829;53.286;10.434;2024-02-16T04:29:37;100789.78;;;11.55;92.31
73558;BME280;61829;53.286;10.434;2024-02-16T04:32:21;100790.41;;;11.57;92.30
73558;BME280;61829;53.286;10.434;2024-02-16T04:35:06;100789.56;;;11.57;92.20
73558;BME280;61829;53.286;10.434;2024-02-16T04:37:55;100786.03;;;11.56;92.28
73558;BME280;61829;53.286;10.434;2024-02-16T04:40:40;100789.38;;;11.58;92.08
73558;BME280;61829;53.286;10.434;2024-02-16T04:43:24;100788.34;;;11.59;91.77
73558;BME280;61829;53.286;10.434;2024-02-16T04:46:14;100790.22;;;11.59;91.96
73558;BME280;61829;53.286;10.434;2024-02-16T04:48:59;100790.22;;;11.59;91.65
73558;BME280;61829;53.286;10.434;2024-02-16T04:51:43;100791.03;;;11.59;91.71
73558;BME280;61829;53.286;10.434;2024-02-16T04:54:28;100786.47;;;11.60;91.58
73558;BME280;61829;53.286;10.434;2024-02-16T04:57:13;100790.41;;;11.57;91.76
73558;BME280;61829;53.286;10.434;2024-02-16T04:59:57;100784.81;;;11.59;91.54
73558;BME280;61829;53.286;10.434;2024-02-16T05:02:45;100788.56;;;11.58;91.49
73558;BME280;61829;53.286;10.434;2024-02-16T05:05:30;100787.69;;;11.57;91.55
73558;BME280;61829;53.286;10.434;2024-02-16T05:08:17;100781.47;;;11.57;91.48
73558;BME280;61829;53.286;10.434;2024-02-16T05:11:02;100775.25;;;11.56;91.63
73558;BME280;61829;53.286;10.434;2024-02-16T05:13:47;100777.28;;;11.54;91.41
73558;BME280;61829;53.286;10.434;2024-02-16T05:16:31;100775.81;;;11.52;91.66
73558;BME280;61829;53.286;10.434;2024-02-16T05:19:16;100783.50;;;11.55;91.42
73558;BME280;61829;53.286;10.434;2024-02-16T05:22:01;100782.69;;;11.54;91.25
73558;BME280;61829;53.286;10.434;2024-02-16T05:24:46;100783.34;;;11.56;91.38
73558;BME280;61829;53.286;10.434;2024-02-16T05:27:30;100784.38;;;11.55;91.16
73558;BME280;61829;53.286;10.434;2024-02-16T05:30:15;100780.63;;;11.56;91.01
73558;BME280;61829;53.286;10.434;2024-02-16T05:32:59;100777.75;;;11.58;90.84
73558;BME280;61829;53.286;10.434;2024-02-16T05:35:45;100768.81;;;11.57;90.82
73558;BME280;61829;53.286;10.434;2024-02-16T05:38:35;100771.50;;;11.57;90.76
73558;BME280;61829;53.286;10.434;2024-02-16T05:41:25;100769.84;;;11.56;90.82
73558;BME280;61829;53.286;10.434;2024-02-16T05:44:09;100767.16;;;11.56;90.62
73558;BME280;61829;53.286;10.434;2024-02-16T05:46:54;100766.09;;;11.57;90.64
73558;BME280;61829;53.286;10.434;2024-02-16T05:49:38;100774.19;;;11.57;90.36
73558;BME280;61829;53.286;10.434;2024-02-16T05:52:23;100769.84;;;11.56;90.22
73558;BME280;61829;53.286;10.434;2024-02-16T05:55:08;100772.38;;;11.58;90.11
73558;BME280;61829;53.286;10.434;2024-02-16T05:57:54;100772.53;;;11.56;90.07
73558;BME280;61829;53.286;10.434;2024-02-16T06:00:39;100768.81;;;11.57;90.21
73558;BME280;61829;53.286;10.434;2024-02-16T06:03:23;100767.97;;;11.57;90.00
73558;BME280;61829;53.286;10.434;2024-02-16T06:06:07;100771.50;;;11.57;89.93
73558;BME280;61829;53.286;10.434;2024-02-16T06:08:52;100772.53;;;11.56;89.65
73558;BME280;61829;53.286;10.434;2024-02-16T06:11:37;100771.50;;;11.57;89.68
73558;BME280;61829;53.286;10.434;2024-02-16T06:14:23;100768.81;;;11.57;89.55
73558;BME280;61829;53.286;10.434;2024-02-16T06:17:09;100782.31;;;11.57;89.51
73558;BME280;61829;53.286;10.434;2024-02-16T06:19:53;100776.91;;;11.57;89.23
73558;BME280;61829;53.286;10.434;2024-02-16T06:22:38;100775.25;;;11.56;89.56
73558;BME280;61829;53.286;10.434;2024-02-16T06:25:22;100776.91;;;11.57;89.27
73558;BME280;61829;53.286;10.434;2024-02-16T06:28:07;100769.19;;;11.54;89.29
73558;BME280;61829;53.286;10.434;2024-02-16T06:30:51;100771.06;;;11.54;89.14
73558;BME280;61829;53.286;10.434;2024-02-16T06:33:35;100770.22;;;11.53;89.15
73558;BME280;61829;53.286;10.434;2024-02-16T06:36:36;100771.28;;;11.52;89.11
73558;BME280;61829;53.286;10.434;2024-02-16T06:39:21;100777.69;;;11.51;89.15
73558;BME280;61829;53.286;10.434;2024-02-16T06:42:06;100767.91;;;11.50;89.15
73558;BME280;61829;53.286;10.434;2024-02-16T06:44:51;100771.00;;;11.47;89.14
73558;BME280;61829;53.286;10.434;2024-02-16T06:47:35;100772.22;;;11.44;89.18
73558;BME280;61829;53.286;10.434;2024-02-16T06:50:20;100766.81;;;11.44;89.06
73558;BME280;61829;53.286;10.434;2024-02-16T06:53:04;100762.44;;;11.43;89.42
73558;BME280;61829;53.286;10.434;2024-02-16T06:55:49;100763.69;;;11.41;88.98
73558;BME280;61829;53.286;10.434;2024-02-16T06:58:35;100770.91;;;11.40;89.27
73558;BME280;61829;53.286;10.434;2024-02-16T07:01:21;100768.03;;;11.42;89.13
73558;BME280;61829;53.286;10.434;2024-02-16T07:04:08;100769.09;;;11.41;89.11
73558;BME280;61829;53.286;10.434;2024-02-16T07:06:55;100777.19;;;11.41;89.21
73558;BME280;61829;53.286;10.434;2024-02-16T07:09:48;100771.78;;;11.41;88.96
73558;BME280;61829;53.286;10.434;2024-02-16T07:12:33;100771.78;;;11.41;89.23
73558;BME280;61829;53.286;10.434;2024-02-16T07:15:18;100780.50;;;11.43;89.03
73558;BME280;61829;53.286;10.434;2024-02-16T07:18:02;100778.84;;;11.42;88.78
73558;BME280;61829;53.286;10.434;2024-02-16T07:20:48;100772.41;;;11.43;88.80
73558;BME280;61829;53.286;10.434;2024-02-16T07:23:33;100772.63;;;11.41;88.75
73558;BME280;61829;53.286;10.434;2024-02-16T07:26:17;100781.31;;;11.43;88.89
73558;BME280;61829;53.286;10.434;2024-02-16T07:29:02;100791.75;;;11.46;88.93
73558;BME280;61829;53.286;10.434;2024-02-16T07:31:46;100796.94;;;11.48;88.73
73558;BME280;61829;53.286;10.434;2024-02-16T07:34:31;100787.81;;;11.49;88.78
73558;BME280;61829;53.286;10.434;2024-02-16T07:37:15;100792.66;;;11.54;88.42
73558;BME280;61829;53.286;10.434;2024-02-16T07:40:00;100790.59;;;11.56;88.36
73558;BME280;61829;53.286;10.434;2024-02-16T07:42:45;100781.28;;;11.58;87.98
73558;BME280;61829;53.286;10.434;2024-02-16T07:45:29;100785.47;;;11.61;87.90
73558;BME280;61829;53.286;10.434;2024-02-16T07:48:14;100776.97;;;11.64;87.86
73558;BME280;61829;53.286;10.434;2024-02-16T07:50:58;100780.56;;;11.71;87.97
73558;BME280;61829;53.286;10.434;2024-02-16T07:53:47;100786.66;;;11.80;87.64
73558;BME280;61829;53.286;10.434;2024-02-16T07:56:31;100792.78;;;11.88;87.23
73558;BME280;61829;53.286;10.434;2024-02-16T07:59:16;100787.78;;;12.07;86.94
73558;BME280;61829;53.286;10.434;2024-02-16T08:02:03;100789.56;;;12.28;86.02
73558;BME280;61829;53.286;10.434;2024-02-16T08:04:48;100790.72;;;12.40;84.92
73558;BME280;61829;53.286;10.434;2024-02-16T08:07:34;100792.06;;;12.57;84.27
73558;BME280;61829;53.286;10.434;2024-02-16T08:10:22;100792.22;;;12.84;83.30
73558;BME280;61829;53.286;10.434;2024-02-16T08:13:06;100804.41;;;13.08;82.33
73558;BME280;61829;53.286;10.434;2024-02-16T08:15:53;100800.31;;;13.25;80.85
73558;BME280;61829;53.286;10.434;2024-02-16T08:18:37;100796.84;;;13.52;80.40
73558;BME280;61829;53.286;10.434;2024-02-16T08:21:22;100793.53;;;13.69;79.26
73558;BME280;61829;53.286;10.434;2024-02-16T08:24:06;100787.50;;;13.74;78.41
73558;BME280;61829;53.286;10.434;2024-02-16T08:26:51;100786.88;;;13.72;77.97
73558;BME280;61829;53.286;10.434;2024-02-16T08:29:36;100775.03;;;13.73;77.72
73558;BME280;61829;53.286;10.434;2024-02-16T08:32:21;100776.47;;;13.76;77.74
73558;BME280;61829;53.286;10.434;2024-02-16T08:35:05;100779.41;;;13.87;77.51
73558;BME280;61829;53.286;10.434;2024-02-16T08:37:51;100781.06;;;13.88;77.39
73558;BME280;61829;53.286;10.434;2024-02-16T08:40:48;100780.22;;;13.88;76.91
73558;BME280;61829;53.286;10.434;2024-02-16T08:43:36;100780.66;;;13.91;77.50
73558;BME280;61829;53.286;10.434;2024-02-16T08:46:21;100780.22;;;13.95;76.80
73558;BME280;61829;53.286;10.434;2024-02-16T08:49:05;100779.63;;;13.99;76.16
73558;BME280;61829;53.286;10.434;2024-02-16T08:51:50;100770.66;;;13.99;76.26
73558;BME280;61829;53.286;10.434;2024-02-16T08:54:34;100779.38;;;14.01;76.48
73558;BME280;61829;53.286;10.434;2024-02-16T08:57:20;100773.13;;;14.00;76.39
73558;BME280;61829;53.286;10.434;2024-02-16T09:00:05;100769.41;;;14.01;76.72
73558;BME280;61829;53.286;10.434;2024-02-16T09:02:50;100773.34;;;14.05;77.09
73558;BME280;61829;53.286;10.434;2024-02-16T09:05:35;100775.66;;;14.08;76.58
73558;BME280;61829;53.286;10.434;2024-02-16T09:08:28;100773.97;;;14.14;76.32
73558;BME280;61829;53.286;10.434;2024-02-16T09:11:17;100782.50;;;14.18;75.52
73558;BME280;61829;53.286;10.434;2024-02-16T09:14:02;100780.22;;;14.21;75.62
73558;BME280;61829;53.286;10.434;2024-02-16T09:16:51;100777.94;;;14.25;75.64
73558;BME280;61829;53.286;10.434;2024-02-16T09:19:36;100782.69;;;14.29;75.33
73558;BME280;61829;53.286;10.434;2024-02-16T09:22:21;100772.72;;;14.30;75.27
73558;BME280;61829;53.286;10.434;2024-02-16T09:25:30;100773.13;;;14.33;74.96
73558;BME280;61829;53.286;10.434;2024-02-16T09:28:15;100779.34;;;14.41;75.23
73558;BME280;61829;53.286;10.434;2024-02-16T09:31:00;100781.44;;;14.45;74.88
73558;BME280;61829;53.286;10.434;2024-02-16T09:33:44;100783.53;;;14.50;74.35
73558;BME280;61829;53.286;10.434;2024-02-16T09:36:29;100780.81;;;14.50;74.97
73558;BME280;61829;53.286;10.434;2024-02-16T09:39:13;100785.00;;;14.59;74.69
73558;BME280;61829;53.286;10.434;2024-02-16T09:41:57;100782.69;;;14.69;74.10
73558;BME280;61829;53.286;10.434;2024-02-16T09:44:43;100782.41;;;14.77;74.21
73558;BME280;61829;53.286;10.434;2024-02-16T09:47:29;100781.59;;;14.84;74.02
73558;BME280;61829;53.286;10.434;2024-02-16T09:50:17;100783.25;;;14.85;73.40
73558;BME280;61829;53.286;10.434;2024-02-16T09:53:04;100778.84;;;14.90;73.11
73558;BME280;61829;53.286;10.434;2024-02-16T09:55:49;100783.00;;;14.93;73.15
73558;BME280;61829;53.286;10.434;2024-02-16T09:58:35;100789.03;;;15.01;73.80
73558;BME280;61829;53.286;10.434;2024-02-16T10:01:21;100788.97;;;15.08;73.27
73558;BME280;61829;53.286;10.434;2024-02-16T10:04:06;100790.81;;;15.14;72.40
73558;BME280;61829;53.286;10.434;2024-02-16T10:06:54;100781.84;;;15.20;72.95
73558;BME280;61829;53.286;10.434;2024-02-16T10:09:39;100790.16;;;15.25;72.43
73558;BME280;61829;53.286;10.434;2024-02-16T10:12:24;100792.84;;;15.32;72.53
73558;BME280;61829;53.286;10.434;2024-02-16T10:15:09;100786.53;;;15.38;71.54
73558;BME280;61829;53.286;10.434;2024-02-16T10:18:08;100784.84;;;15.44;71.44
73558;BME280;61829;53.286;10.434;2024-02-16T10:20:53;100787.50;;;15.50;71.48
73558;BME280;61829;53.286;10.434;2024-02-16T10:23:38;100793.94;;;15.56;71.62
73558;BME280;61829;53.286;10.434;2024-02-16T10:26:27;100785.78;;;15.63;70.96
73558;BME280;61829;53.286;10.434;2024-02-16T10:29:17;100793.25;;;15.67;70.13
73558;BME280;61829;53.286;10.434;2024-02-16T10:32:06;100792.19;;;15.75;69.71
73558;BME280;61829;53.286;10.434;2024-02-16T10:34:51;100786.59;;;15.95;69.73
73558;BME280;61829;53.286;10.434;2024-02-16T10:37:37;100795.38;;;16.22;69.51
73558;BME280;61829;53.286;10.434;2024-02-16T10:40:26;100795.63;;;16.39;68.82
73558;BME280;61829;53.286;10.434;2024-02-16T10:43:13;100798.00;;;16.54;67.74
73558;BME280;61829;53.286;10.434;2024-02-16T10:45:59;100801.09;;;16.57;67.00
73558;BME280;61829;53.286;10.434;2024-02-16T10:48:44;100803.72;;;16.64;66.48
73558;BME280;61829;53.286;10.434;2024-02-16T10:51:34;100804.25;;;16.73;66.06
73558;BME280;61829;53.286;10.434;2024-02-16T10:54:29;100798.94;;;16.85;66.52
73558;BME280;61829;53.286;10.434;2024-02-16T10:57:16;100797.28;;;17.02;66.21
73558;BME280;61829;53.286;10.434;2024-02-16T11:00:08;100796.13;;;17.10;65.17
73558;BME280;61829;53.286;10.434;2024-02-16T11:02:57;100787.28;;;17.14;64.50
73558;BME280;61829;53.286;10.434;2024-02-16T11:05:45;100794.63;;;17.14;63.69
73558;BME280;61829;53.286;10.434;2024-02-16T11:08:37;100789.25;;;17.07;64.12
73558;BME280;61829;53.286;10.434;2024-02-16T11:11:23;100786.84;;;16.99;64.61
73558;BME280;61829;53.286;10.434;2024-02-16T11:14:15;100795.84;;;16.99;66.07
73558;BME280;61829;53.286;10.434;2024-02-16T11:17:01;100795.47;;;16.96;67.12
73558;BME280;61829;53.286;10.434;2024-02-16T11:19:48;100786.44;;;16.95;66.42
73558;BME280;61829;53.286;10.434;2024-02-16T11:22:37;100788.81;;;16.92;66.41
73558;BME280;61829;53.286;10.434;2024-02-16T11:25:32;100791.44;;;16.98;66.62
73558;BME280;61829;53.286;10.434;2024-02-16T11:28:17;100792.28;;;16.99;65.65
73558;BME280;61829;53.286;10.434;2024-02-16T11:31:03;100789.31;;;17.00;64.82
73558;BME280;61829;53.286;10.434;2024-02-16T11:33:48;100789.94;;;17.02;64.80
73558;BME280;61829;53.286;10.434;2024-02-16T11:36:33;100782.22;;;16.99;64.67
73558;BME280;61829;53.286;10.434;2024-02-16T11:39:20;100783.06;;;17.00;65.30
73558;BME280;61829;53.286;10.434;2024-02-16T11:42:07;100774.44;;;17.03;64.96
73558;BME280;61829;53.286;10.434;2024-02-16T11:44:55;100775.50;;;17.02;65.15
73558;BME280;61829;53.286;10.434;2024-02-16T11:47:40;100771.94;;;17.01;64.74
73558;BME280;61829;53.286;10.434;2024-02-16T11:50:26;100764.59;;;17.02;65.15
73558;BME280;61829;53.286;10.434;2024-02-16T11:53:15;100762.34;;;16.99;64.58
73558;BME280;61829;53.286;10.434;2024-02-16T11:56:00;100764.81;;;17.00;65.28
73558;BME280;61829;53.286;10.434;2024-02-16T12:02:27;100765.59;;;17.08;64.95
73558;BME280;61829;53.286;10.434;2024-02-16T12:05:15;100757.94;;;17.16;65.48
73558;BME280;61829;53.286;10.434;2024-02-16T12:07:59;100761.84;;;17.20;64.90
73558;BME280;61829;53.286;10.434;2024-02-16T12:10:45;100754.28;;;17.22;64.91
73558;BME280;61829;53.286;10.434;2024-02-16T12:13:31;100764.59;;;17.32;65.35
73558;BME280;61829;53.286;10.434;2024-02-16T12:16:18;100760.59;;;17.35;64.32
73558;BME280;61829;53.286;10.434;2024-02-16T12:19:06;100772.09;;;17.37;64.18
73558;BME280;61829;53.286;10.434;2024-02-16T12:21:52;100777.06;;;17.40;64.68
73558;BME280;61829;53.286;10.434;2024-02-16T12:24:37;100781.34;;;17.36;64.47
73558;BME280;61829;53.286;10.434;2024-02-16T12:27:21;100782.16;;;17.36;64.35
73558;BME280;61829;53.286;10.434;2024-02-16T12:30:07;100782.16;;;17.36;65.29
73558;BME280;61829;53.286;10.434;2024-02-16T12:32:51;100784.75;;;17.31;64.41
73558;BME280;61829;53.286;10.434;2024-02-16T12:35:37;100775.28;;;17.34;64.58
73558;BME280;61829;53.286;10.434;2024-02-16T12:38:21;100780.03;;;17.38;65.16
73558;BME280;61829;53.286;10.434;2024-02-16T12:41:06;100780.88;;;17.39;65.17
73558;BME280;61829;53.286;10.434;2024-02-16T12:43:51;100785.03;;;17.41;65.33
73558;BME280;61829;53.286;10.434;2024-02-16T12:46:35;100771.41;;;17.41;65.45
73558;BME280;61829;53.286;10.434;2024-02-16T12:49:20;100770.81;;;17.39;65.43
73558;BME280;61829;53.286;10.434;2024-02-16T12:52:06;100786.06;;;17.40;65.57
73558;BME280;61829;53.286;10.434;2024-02-16T12:54:52;100782.38;;;17.35;65.79
73558;BME280;61829;53.286;10.434;2024-02-16T12:57:37;100786.38;;;17.32;65.40
73558;BME280;61829;53.286;10.434;2024-02-16T13:00:24;100780.59;;;17.28;65.30
73558;BME280;61829;53.286;10.434;2024-02-16T13:03:09;100774.31;;;17.28;65.64
73558;BME280;61829;53.286;10.434;2024-02-16T13:05:54;100776.22;;;17.27;65.75
73558;BME280;61829;53.286;10.434;2024-02-16T13:08:38;100779.28;;;17.31;65.74
73558;BME280;61829;53.286;10.434;2024-02-16T13:11:23;100784.44;;;17.21;65.36
73558;BME280;61829;53.286;10.434;2024-02-16T13:14:07;100781.16;;;17.19;65.78
73558;BME280;61829;53.286;10.434;2024-02-16T13:16:52;100788.03;;;17.21;65.70
73558;BME280;61829;53.286;10.434;2024-02-16T13:19:36;100793.78;;;17.13;65.87
73558;BME280;61829;53.286;10.434;2024-02-16T13:22:20;100791.06;;;17.13;66.31
73558;BME280;61829;53.286;10.434;2024-02-16T13:25:07;100812.25;;;17.11;66.85
73558;BME280;61829;53.286;10.434;2024-02-16T13:27:52;100801.19;;;17.06;66.82
73558;BME280;61829;53.286;10.434;2024-02-16T13:30:36;100813.81;;;17.00;67.11
73558;BME280;61829;53.286;10.434;2024-02-16T13:33:21;100806.28;;;17.02;66.66
73558;BME280;61829;53.286;10.434;2024-02-16T13:36:06;100814.13;;;17.11;67.13
73558;BME280;61829;53.286;10.434;2024-02-16T13:38:51;100807.63;;;17.12;66.71
73558;BME280;61829;53.286;10.434;2024-02-16T13:41:38;100813.53;;;17.09;67.10
73558;BME280;61829;53.286;10.434;2024-02-16T13:44:23;100813.22;;;16.98;67.14
73558;BME280;61829;53.286;10.434;2024-02-16T13:47:09;100808.69;;;16.92;67.44
73558;BME280;61829;53.286;10.434;2024-02-16T13:49:54;100815.19;;;16.91;67.48
73558;BME280;61829;53.286;10.434;2024-02-16T13:52:41;100818.13;;;16.90;67.81
73558;BME280;61829;53.286;10.434;2024-02-16T13:55:25;100825.84;;;16.93;68.08
73558;BME280;61829;53.286;10.434;2024-02-16T13:58:11;100824.03;;;16.87;67.99
73558;BME280;61829;53.286;10.434;2024-02-16T14:00:58;100816.16;;;16.78;68.86
73558;BME280;61829;53.286;10.434;2024-02-16T14:03:43;100822.88;;;16.76;68.46
73558;BME280;61829;53.286;10.434;2024-02-16T14:06:28;100826.47;;;16.70;68.92
73558;BME280;61829;53.286;10.434;2024-02-16T14:09:13;100820.59;;;16.73;69.14
73558;BME280;61829;53.286;10.434;2024-02-16T14:11:58;100823.75;;;16.70;69.27
73558;BME280;61829;53.286;10.434;2024-02-16T14:15:02;100829.44;;;16.68;69.54
73558;BME280;61829;53.286;10.434;2024-02-16T14:17:47;100819.03;;;16.65;69.72
73558;BME280;61829;53.286;10.434;2024-02-16T14:20:32;100837.28;;;16.58;70.20
73558;BME280;61829;53.286;10.434;2024-02-16T14:23:16;100842.19;;;16.49;71.56
73558;BME280;61829;53.286;10.434;2024-02-16T14:26:01;100835.38;;;16.40;72.49